sensor_id;sensor_type;location;lat;lon;timestamp;temperature;humidity
38456;DHT22;24237;50.106;20.014;2023-02-24T00:00:05;8.20;99.90
38456;DHT22;24237;50.106;20.014;2023-02-24T00:02:50;8.10;99.90
38456;DHT22;24237;50.106;20.014;2023-02-24T00:05:17;8.20;99.90
38456;DHT22;24237;50.106;20.014;2023-02-24T00:07:43;8.20;99.90
38456;DHT22;24237;50.106;20.014;2023-02-24T00:10:09;8.20;99.90
38456;DHT22;24237;50.106;20.014;2023-02-24T00:12:35;8.20;99.90
38456;DHT22;24237;50.106;20.014;2023-02-24T00:15:00;8.20;99.90
38456;DHT22;24237;50.106;20.014;2023-02-24T00:17:26;8.20;99.90
38456;DHT22;24237;50.106;20.014;2023-02-24T00:19:55;8.20;99.90
38456;DHT22;24237;50.106;20.014;2023-02-24T00:22:20;8.20;99.90
38456;DHT22;24237;50.106;20.014;2023-02-24T00:24:46;8.20;99.90
38456;DHT22;24237;50.106;20.014;2023-02-24T00:27:11;8.20;99.90
38456;DHT22;24237;50.106;20.014;2023-02-24T00:29:37;8.30;99.90
38456;DHT22;24237;50.106;20.014;2023-02-24T00:32:04;8.30;99.90
38456;DHT22;24237;50.106;20.014;2023-02-24T00:34:34;8.30;99.90
38456;DHT22;24237;50.106;20.014;2023-02-24T00:37:00;8.30;99.90
38456;DHT22;24237;50.106;20.014;2023-02-24T00:39:26;8.20;99.90
38456;DHT22;24237;50.106;20.014;2023-02-24T00:41:57;8.30;99.90
38456;DHT22;24237;50.106;20.014;2023-02-24T00:44:35;8.30;99.90
38456;DHT22;24237;50.106;20.014;2023-02-24T00:47:01;8.30;99.90
38456;DHT22;24237;50.106;20.014;2023-02-24T00:49:30;8.30;99.90
38456;DHT22;24237;50.106;20.014;2023-02-24T00:51:56;8.30;99.90
38456;DHT22;24237;50.106;20.014;2023-02-24T00:54:22;8.30;99.90
38456;DHT22;24237;50.106;20.014;2023-02-24T00:56:53;8.20;99.90
38456;DHT22;24237;50.106;20.014;2023-02-24T00:59:19;8.30;99.90
38456;DHT22;24237;50.106;20.014;2023-02-24T01:01:46;8.30;99.90
38456;DHT22;24237;50.106;20.014;2023-02-24T01:04:14;8.30;99.90
38456;DHT22;24237;50.106;20.014;2023-02-24T01:06:46;8.30;99.90
38456;DHT22;24237;50.106;20.014;2023-02-24T01:09:18;8.30;99.90
38456;DHT22;24237;50.106;20.014;2023-02-24T01:11:46;8.30;99.90
38456;DHT22;24237;50.106;20.014;2023-02-24T01:14:34;8.40;99.90
38456;DHT22;24237;50.106;20.014;2023-02-24T01:17:00;8.50;99.90
38456;DHT22;24237;50.106;20.014;2023-02-24T01:19:30;8.60;99.90
38456;DHT22;24237;50.106;20.014;2023-02-24T01:21:57;8.60;99.90
38456;DHT22;24237;50.106;20.014;2023-02-24T01:24:24;8.50;99.90
38456;DHT22;24237;50.106;20.014;2023-02-24T01:26:50;8.40;99.90
38456;DHT22;24237;50.106;20.014;2023-02-24T01:29:16;8.40;99.90
38456;DHT22;24237;50.106;20.014;2023-02-24T01:31:42;8.40;99.90
38456;DHT22;24237;50.106;20.014;2023-02-24T01:34:10;8.50;99.90
38456;DHT22;24237;50.106;20.014;2023-02-24T01:36:39;8.50;99.90
38456;DHT22;24237;50.106;20.014;2023-02-24T01:39:05;8.50;99.90
38456;DHT22;24237;50.106;20.014;2023-02-24T01:41:37;8.40;99.90
38456;DHT22;24237;50.106;20.014;2023-02-24T01:46:38;8.60;99.90
38456;DHT22;24237;50.106;20.014;2023-02-24T01:51:35;8.40;99.90
38456;DHT22;24237;50.106;20.014;2023-02-24T01:54:02;8.40;99.90
38456;DHT22;24237;50.106;20.014;2023-02-24T01:56:31;8.30;99.90
38456;DHT22;24237;50.106;20.014;2023-02-24T01:58:58;8.30;99.90
38456;DHT22;24237;50.106;20.014;2023-02-24T02:01:24;8.40;99.90
38456;DHT22;24237;50.106;20.014;2023-02-24T02:03:51;8.40;99.90
38456;DHT22;24237;50.106;20.014;2023-02-24T02:06:21;8.40;99.90
38456;DHT22;24237;50.106;20.014;2023-02-24T02:08:47;8.40;99.90
38456;DHT22;24237;50.106;20.014;2023-02-24T02:11:15;8.40;99.90
38456;DHT22;24237;50.106;20.014;2023-02-24T02:13:48;8.60;99.90
38456;DHT22;24237;50.106;20.014;2023-02-24T02:33:08;8.70;99.90
38456;DHT22;24237;50.106;20.014;2023-02-24T02:38:34;8.80;99.90
38456;DHT22;24237;50.106;20.014;2023-02-24T02:46:35;8.60;99.90
38456;DHT22;24237;50.106;20.014;2023-02-24T02:51:46;8.90;99.90
38456;DHT22;24237;50.106;20.014;2023-02-24T02:54:23;8.90;99.90
38456;DHT22;24237;50.106;20.014;2023-02-24T02:57:10;8.80;99.90
38456;DHT22;24237;50.106;20.014;2023-02-24T02:59:48;8.70;99.90
38456;DHT22;24237;50.106;20.014;2023-02-24T03:02:19;8.70;99.90
38456;DHT22;24237;50.106;20.014;2023-02-24T03:04:57;8.70;99.90
38456;DHT22;24237;50.106;20.014;2023-02-24T03:07:29;8.80;99.90
38456;DHT22;24237;50.106;20.014;2023-02-24T03:09:59;8.80;99.90
38456;DHT22;24237;50.106;20.014;2023-02-24T03:12:28;8.90;99.90
38456;DHT22;24237;50.106;20.014;2023-02-24T03:15:01;8.90;99.90
38456;DHT22;24237;50.106;20.014;2023-02-24T03:17:32;8.90;99.90
38456;DHT22;24237;50.106;20.014;2023-02-24T03:20:04;9.00;99.90
38456;DHT22;24237;50.106;20.014;2023-02-24T03:25:14;9.20;99.90
38456;DHT22;24237;50.106;20.014;2023-02-24T03:27:48;9.10;99.90
38456;DHT22;24237;50.106;20.014;2023-02-24T03:30:20;9.10;99.90
38456;DHT22;24237;50.106;20.014;2023-02-24T03:33:20;9.30;99.90
38456;DHT22;24237;50.106;20.014;2023-02-24T03:35:48;9.50;99.90
38456;DHT22;24237;50.106;20.014;2023-02-24T03:38:16;9.60;99.90
38456;DHT22;24237;50.106;20.014;2023-02-24T03:40:42;9.60;99.90
38456;DHT22;24237;50.106;20.014;2023-02-24T03:46:06;9.90;99.90
38456;DHT22;24237;50.106;20.014;2023-02-24T03:48:33;10.10;99.90
38456;DHT22;24237;50.106;20.014;2023-02-24T03:51:03;10.20;99.90
38456;DHT22;24237;50.106;20.014;2023-02-24T03:56:27;10.50;99.90
38456;DHT22;24237;50.106;20.014;2023-02-24T04:02:02;10.70;99.90
38456;DHT22;24237;50.106;20.014;2023-02-24T04:10:00;10.80;99.90
38456;DHT22;24237;50.106;20.014;2023-02-24T04:12:35;10.70;99.90
38456;DHT22;24237;50.106;20.014;2023-02-24T04:17:52;10.70;99.90
38456;DHT22;24237;50.106;20.014;2023-02-24T04:20:22;10.60;99.90
38456;DHT22;24237;50.106;20.014;2023-02-24T04:22:52;10.60;99.90
38456;DHT22;24237;50.106;20.014;2023-02-24T04:25:21;10.60;99.90
38456;DHT22;24237;50.106;20.014;2023-02-24T04:27:54;10.60;99.90
38456;DHT22;24237;50.106;20.014;2023-02-24T04:30:22;10.70;99.90
38456;DHT22;24237;50.106;20.014;2023-02-24T04:32:49;10.60;99.90
38456;DHT22;24237;50.106;20.014;2023-02-24T04:35:18;10.70;99.90
38456;DHT22;24237;50.106;20.014;2023-02-24T04:37:44;10.60;99.90
38456;DHT22;24237;50.106;20.014;2023-02-24T04:40:15;10.80;99.90
38456;DHT22;24237;50.106;20.014;2023-02-24T04:42:42;10.50;99.90
38456;DHT22;24237;50.106;20.014;2023-02-24T04:45:15;10.60;99.90
38456;DHT22;24237;50.106;20.014;2023-02-24T04:47:45;10.70;99.90
38456;DHT22;24237;50.106;20.014;2023-02-24T04:50:14;10.50;99.90
38456;DHT22;24237;50.106;20.014;2023-02-24T04:52:53;10.70;99.90
38456;DHT22;24237;50.106;20.014;2023-02-24T04:55:21;10.70;99.90
38456;DHT22;24237;50.106;20.014;2023-02-24T04:57:50;10.70;99.90
38456;DHT22;24237;50.106;20.014;2023-02-24T05:00:17;10.80;99.90
38456;DHT22;24237;50.106;20.014;2023-02-24T05:02:50;10.70;99.90
38456;DHT22;24237;50.106;20.014;2023-02-24T05:05:20;10.90;99.90
38456;DHT22;24237;50.106;20.014;2023-02-24T05:07:51;10.60;99.90
38456;DHT22;24237;50.106;20.014;2023-02-24T05:10:17;10.60;99.90
38456;DHT22;24237;50.106;20.014;2023-02-24T05:12:44;10.70;99.90
38456;DHT22;24237;50.106;20.014;2023-02-24T05:15:10;10.70;99.90
38456;DHT22;24237;50.106;20.014;2023-02-24T05:17:36;10.50;99.90
38456;DHT22;24237;50.106;20.014;2023-02-24T05:20:03;10.60;99.90
38456;DHT22;24237;50.106;20.014;2023-02-24T05:22:49;10.50;99.90
38456;DHT22;24237;50.106;20.014;2023-02-24T05:25:18;10.70;99.90
38456;DHT22;24237;50.106;20.014;2023-02-24T05:27:44;10.60;99.90
38456;DHT22;24237;50.106;20.014;2023-02-24T05:30:11;10.60;99.90
38456;DHT22;24237;50.106;20.014;2023-02-24T05:32:36;10.60;99.90
38456;DHT22;24237;50.106;20.014;2023-02-24T05:35:03;10.70;99.90
38456;DHT22;24237;50.106;20.014;2023-02-24T05:37:28;10.50;99.90
38456;DHT22;24237;50.106;20.014;2023-02-24T05:39:55;10.50;99.90
38456;DHT22;24237;50.106;20.014;2023-02-24T05:42:20;10.70;99.90
38456;DHT22;24237;50.106;20.014;2023-02-24T05:44:46;10.60;99.90
38456;DHT22;24237;50.106;20.014;2023-02-24T05:47:12;10.70;99.90
38456;DHT22;24237;50.106;20.014;2023-02-24T05:49:38;10.60;99.90
38456;DHT22;24237;50.106;20.014;2023-02-24T05:52:06;10.60;99.90
38456;DHT22;24237;50.106;20.014;2023-02-24T05:54:38;10.40;99.90
38456;DHT22;24237;50.106;20.014;2023-02-24T05:57:07;10.20;99.90
38456;DHT22;24237;50.106;20.014;2023-02-24T05:59:33;10.30;99.90
38456;DHT22;24237;50.106;20.014;2023-02-24T06:02:03;10.20;99.90
38456;DHT22;24237;50.106;20.014;2023-02-24T06:04:32;10.10;99.90
38456;DHT22;24237;50.106;20.014;2023-02-24T06:07:10;10.20;99.90
38456;DHT22;24237;50.106;20.014;2023-02-24T06:09:39;10.30;99.90
38456;DHT22;24237;50.106;20.014;2023-02-24T06:12:08;10.40;99.90
38456;DHT22;24237;50.106;20.014;2023-02-24T06:14:33;10.50;99.90
38456;DHT22;24237;50.106;20.014;2023-02-24T06:16:59;10.70;99.90
38456;DHT22;24237;50.106;20.014;2023-02-24T06:19:27;10.40;99.90
38456;DHT22;24237;50.106;20.014;2023-02-24T06:21:56;10.40;99.90
38456;DHT22;24237;50.106;20.014;2023-02-24T06:24:30;10.60;99.90
38456;DHT22;24237;50.106;20.014;2023-02-24T06:26:57;10.50;99.90
38456;DHT22;24237;50.106;20.014;2023-02-24T06:29:30;10.20;99.90
38456;DHT22;24237;50.106;20.014;2023-02-24T06:31:56;10.20;99.90
38456;DHT22;24237;50.106;20.014;2023-02-24T06:34:24;10.20;99.90
38456;DHT22;24237;50.106;20.014;2023-02-24T06:36:52;10.30;99.90
38456;DHT22;24237;50.106;20.014;2023-02-24T06:39:18;10.50;99.90
38456;DHT22;24237;50.106;20.014;2023-02-24T06:41:44;10.50;99.90
38456;DHT22;24237;50.106;20.014;2023-02-24T06:44:09;10.40;99.90
38456;DHT22;24237;50.106;20.014;2023-02-24T06:46:35;10.70;99.90
38456;DHT22;24237;50.106;20.014;2023-02-24T06:49:01;10.80;99.90
38456;DHT22;24237;50.106;20.014;2023-02-24T06:51:27;10.70;99.90
38456;DHT22;24237;50.106;20.014;2023-02-24T06:53:57;10.80;99.90
38456;DHT22;24237;50.106;20.014;2023-02-24T06:56:25;10.90;99.90
38456;DHT22;24237;50.106;20.014;2023-02-24T06:58:53;10.90;99.90
38456;DHT22;24237;50.106;20.014;2023-02-24T07:01:25;11.10;99.90
38456;DHT22;24237;50.106;20.014;2023-02-24T07:03:54;11.00;99.90
38456;DHT22;24237;50.106;20.014;2023-02-24T07:06:27;11.10;99.90
38456;DHT22;24237;50.106;20.014;2023-02-24T07:08:56;11.30;99.90
38456;DHT22;24237;50.106;20.014;2023-02-24T07:11:21;11.40;99.90
38456;DHT22;24237;50.106;20.014;2023-02-24T07:13:48;11.40;99.90
38456;DHT22;24237;50.106;20.014;2023-02-24T07:16:18;11.50;99.90
38456;DHT22;24237;50.106;20.014;2023-02-24T07:18:44;11.40;99.90
38456;DHT22;24237;50.106;20.014;2023-02-24T07:21:15;11.50;99.90
38456;DHT22;24237;50.106;20.014;2023-02-24T07:23:43;11.50;99.90
38456;DHT22;24237;50.106;20.014;2023-02-24T07:26:11;11.50;99.90
38456;DHT22;24237;50.106;20.014;2023-02-24T07:28:42;11.50;99.90
38456;DHT22;24237;50.106;20.014;2023-02-24T07:31:12;11.60;99.90
38456;DHT22;24237;50.106;20.014;2023-02-24T07:33:39;11.50;99.90
38456;DHT22;24237;50.106;20.014;2023-02-24T07:36:06;11.70;99.90
38456;DHT22;24237;50.106;20.014;2023-02-24T07:38:38;11.70;99.90
38456;DHT22;24237;50.106;20.014;2023-02-24T07:41:05;11.90;99.90
38456;DHT22;24237;50.106;20.014;2023-02-24T07:43:33;11.60;99.90
38456;DHT22;24237;50.106;20.014;2023-02-24T07:46:10;11.60;99.90
38456;DHT22;24237;50.106;20.014;2023-02-24T07:48:37;11.50;99.90
38456;DHT22;24237;50.106;20.014;2023-02-24T07:51:07;11.70;99.90
38456;DHT22;24237;50.106;20.014;2023-02-24T07:53:34;11.70;99.90
38456;DHT22;24237;50.106;20.014;2023-02-24T07:56:08;11.60;99.90
38456;DHT22;24237;50.106;20.014;2023-02-24T07:58:38;11.80;99.90
38456;DHT22;24237;50.106;20.014;2023-02-24T08:01:07;11.70;99.90
38456;DHT22;24237;50.106;20.014;2023-02-24T08:03:36;11.60;99.90
38456;DHT22;24237;50.106;20.014;2023-02-24T08:06:07;11.60;99.90
38456;DHT22;24237;50.106;20.014;2023-02-24T08:08:51;11.60;99.90
38456;DHT22;24237;50.106;20.014;2023-02-24T08:11:28;11.50;99.90
38456;DHT22;24237;50.106;20.014;2023-02-24T08:14:09;11.40;99.90
38456;DHT22;24237;50.106;20.014;2023-02-24T08:16:41;11.60;99.90
38456;DHT22;24237;50.106;20.014;2023-02-24T08:19:18;11.70;99.90
38456;DHT22;24237;50.106;20.014;2023-02-24T08:21:50;11.90;99.90
38456;DHT22;24237;50.106;20.014;2023-02-24T08:24:24;11.70;99.90
38456;DHT22;24237;50.106;20.014;2023-02-24T08:26:55;11.90;99.90
38456;DHT22;24237;50.106;20.014;2023-02-24T08:29:37;11.90;99.90
38456;DHT22;24237;50.106;20.014;2023-02-24T08:32:26;11.80;99.90
38456;DHT22;24237;50.106;20.014;2023-02-24T08:35:00;11.90;99.90
38456;DHT22;24237;50.106;20.014;2023-02-24T08:37:29;12.00;99.90
38456;DHT22;24237;50.106;20.014;2023-02-24T08:40:10;11.90;99.90
38456;DHT22;24237;50.106;20.014;2023-02-24T08:43:11;11.90;99.90
38456;DHT22;24237;50.106;20.014;2023-02-24T08:48:12;12.30;99.90
38456;DHT22;24237;50.106;20.014;2023-02-24T08:50:54;12.40;99.90
38456;DHT22;24237;50.106;20.014;2023-02-24T08:53:21;12.20;99.90
38456;DHT22;24237;50.106;20.014;2023-02-24T08:55:49;12.40;99.90
38456;DHT22;24237;50.106;20.014;2023-02-24T08:58:19;12.40;99.90
38456;DHT22;24237;50.106;20.014;2023-02-24T09:00:52;12.60;99.90
38456;DHT22;24237;50.106;20.014;2023-02-24T09:03:20;12.60;99.90
38456;DHT22;24237;50.106;20.014;2023-02-24T09:06:03;12.60;99.90
38456;DHT22;24237;50.106;20.014;2023-02-24T09:08:36;12.60;99.90
38456;DHT22;24237;50.106;20.014;2023-02-24T09:11:08;12.70;99.90
38456;DHT22;24237;50.106;20.014;2023-02-24T09:13:37;12.60;99.90
38456;DHT22;24237;50.106;20.014;2023-02-24T09:16:17;12.60;99.90
38456;DHT22;24237;50.106;20.014;2023-02-24T09:18:43;12.30;99.90
38456;DHT22;24237;50.106;20.014;2023-02-24T09:21:13;12.40;99.90
38456;DHT22;24237;50.106;20.014;2023-02-24T09:23:58;12.20;99.90
38456;DHT22;24237;50.106;20.014;2023-02-24T09:26:27;12.30;99.90
38456;DHT22;24237;50.106;20.014;2023-02-24T09:28:57;12.30;99.90
38456;DHT22;24237;50.106;20.014;2023-02-24T09:31:23;12.40;99.90
38456;DHT22;24237;50.106;20.014;2023-02-24T09:34:08;12.40;99.90
38456;DHT22;24237;50.106;20.014;2023-02-24T09:36:35;12.20;99.90
38456;DHT22;24237;50.106;20.014;2023-02-24T09:39:10;12.00;99.90
38456;DHT22;24237;50.106;20.014;2023-02-24T09:41:50;12.10;99.90
38456;DHT22;24237;50.106;20.014;2023-02-24T09:44:49;12.30;99.90
38456;DHT22;24237;50.106;20.014;2023-02-24T09:47:34;12.40;99.90
38456;DHT22;24237;50.106;20.014;2023-02-24T09:52:49;12.70;99.90
38456;DHT22;24237;50.106;20.014;2023-02-24T09:58:18;13.00;99.90
38456;DHT22;24237;50.106;20.014;2023-02-24T10:03:56;13.00;99.90
38456;DHT22;24237;50.106;20.014;2023-02-24T10:06:35;12.80;99.90
38456;DHT22;24237;50.106;20.014;2023-02-24T10:11:43;12.70;99.90
38456;DHT22;24237;50.106;20.014;2023-02-24T10:16:54;12.50;99.90
38456;DHT22;24237;50.106;20.014;2023-02-24T10:19:43;12.40;99.90
38456;DHT22;24237;50.106;20.014;2023-02-24T10:22:27;12.60;99.90
38456;DHT22;24237;50.106;20.014;2023-02-24T10:27:46;12.40;99.90
38456;DHT22;24237;50.106;20.014;2023-02-24T10:30:54;12.40;99.90
38456;DHT22;24237;50.106;20.014;2023-02-24T10:33:34;12.80;99.90
38456;DHT22;24237;50.106;20.014;2023-02-24T10:36:09;13.10;99.90
38456;DHT22;24237;50.106;20.014;2023-02-24T10:38:36;13.30;99.90
38456;DHT22;24237;50.106;20.014;2023-02-24T10:41:02;13.60;99.90
38456;DHT22;24237;50.106;20.014;2023-02-24T10:43:31;13.50;99.90
38456;DHT22;24237;50.106;20.014;2023-02-24T10:45:58;13.70;99.90
38456;DHT22;24237;50.106;20.014;2023-02-24T10:48:32;13.50;99.90
38456;DHT22;24237;50.106;20.014;2023-02-24T10:51:10;13.60;99.90
38456;DHT22;24237;50.106;20.014;2023-02-24T10:53:36;13.30;99.90
38456;DHT22;24237;50.106;20.014;2023-02-24T10:56:13;13.10;99.90
38456;DHT22;24237;50.106;20.014;2023-02-24T10:59:23;13.10;99.90
38456;DHT22;24237;50.106;20.014;2023-02-24T11:02:07;13.00;99.90
38456;DHT22;24237;50.106;20.014;2023-02-24T11:04:52;13.10;99.90
38456;DHT22;24237;50.106;20.014;2023-02-24T11:07:27;13.50;99.90
38456;DHT22;24237;50.106;20.014;2023-02-24T11:10:20;13.60;99.90
38456;DHT22;24237;50.106;20.014;2023-02-24T11:12:58;13.30;99.90
38456;DHT22;24237;50.106;20.014;2023-02-24T11:18:30;13.00;99.90
38456;DHT22;24237;50.106;20.014;2023-02-24T11:21:08;13.10;99.90
38456;DHT22;24237;50.106;20.014;2023-02-24T11:23:44;13.10;99.90
38456;DHT22;24237;50.106;20.014;2023-02-24T11:26:33;13.00;99.90
38456;DHT22;24237;50.106;20.014;2023-02-24T11:29:02;13.30;99.90
38456;DHT22;24237;50.106;20.014;2023-02-24T11:31:34;13.30;99.90
38456;DHT22;24237;50.106;20.014;2023-02-24T11:34:08;13.50;99.90
38456;DHT22;24237;50.106;20.014;2023-02-24T11:40:14;14.20;99.90
38456;DHT22;24237;50.106;20.014;2023-02-24T11:45:36;14.60;99.90
38456;DHT22;24237;50.106;20.014;2023-02-24T11:48:11;14.60;99.90
38456;DHT22;24237;50.106;20.014;2023-02-24T11:50:49;14.80;99.90
38456;DHT22;24237;50.106;20.014;2023-02-24T11:53:21;14.70;99.90
38456;DHT22;24237;50.106;20.014;2023-02-24T11:55:56;14.50;99.90
38456;DHT22;24237;50.106;20.014;2023-02-24T11:58:39;14.60;99.90
38456;DHT22;24237;50.106;20.014;2023-02-24T12:02:14;14.70;99.90
38456;DHT22;24237;50.106;20.014;2023-02-24T12:04:35;15.10;99.90
38456;DHT22;24237;50.106;20.014;2023-02-24T12:09:37;16.20;99.90
38456;DHT22;24237;50.106;20.014;2023-02-24T12:12:23;16.60;99.90
38456;DHT22;24237;50.106;20.014;2023-02-24T12:14:56;16.50;99.90
38456;DHT22;24237;50.106;20.014;2023-02-24T12:20:36;15.40;99.90
38456;DHT22;24237;50.106;20.014;2023-02-24T12:23:16;14.60;99.90
38456;DHT22;24237;50.106;20.014;2023-02-24T12:42:43;14.30;99.90
38456;DHT22;24237;50.106;20.014;2023-02-24T12:45:17;14.20;99.90
38456;DHT22;24237;50.106;20.014;2023-02-24T12:51:13;14.10;99.90
38456;DHT22;24237;50.106;20.014;2023-02-24T12:56:32;14.30;99.90
38456;DHT22;24237;50.106;20.014;2023-02-24T12:59:02;14.20;99.90
38456;DHT22;24237;50.106;20.014;2023-02-24T13:02:04;14.30;99.90
38456;DHT22;24237;50.106;20.014;2023-02-24T13:15:32;13.40;99.90
38456;DHT22;24237;50.106;20.014;2023-02-24T13:17:58;13.30;99.90
38456;DHT22;24237;50.106;20.014;2023-02-24T13:20:36;13.10;99.90
38456;DHT22;24237;50.106;20.014;2023-02-24T13:23:16;13.00;99.90
38456;DHT22;24237;50.106;20.014;2023-02-24T13:25:49;12.80;99.90
38456;DHT22;24237;50.106;20.014;2023-02-24T13:31:08;12.80;99.90
38456;DHT22;24237;50.106;20.014;2023-02-24T13:33:42;12.80;99.90
38456;DHT22;24237;50.106;20.014;2023-02-24T13:36:23;12.80;99.90
38456;DHT22;24237;50.106;20.014;2023-02-24T13:39:05;13.00;99.90
38456;DHT22;24237;50.106;20.014;2023-02-24T13:43:58;15.20;99.90
38456;DHT22;24237;50.106;20.014;2023-02-24T13:46:46;15.90;99.90
38456;DHT22;24237;50.106;20.014;2023-02-24T13:51:50;17.00;99.90
38456;DHT22;24237;50.106;20.014;2023-02-24T14:02:13;16.30;99.90
38456;DHT22;24237;50.106;20.014;2023-02-24T14:04:49;16.10;99.90
38456;DHT22;24237;50.106;20.014;2023-02-24T14:07:24;15.60;99.90
38456;DHT22;24237;50.106;20.014;2023-02-24T14:09:59;15.00;99.90
38456;DHT22;24237;50.106;20.014;2023-02-24T14:12:35;14.70;99.90
38456;DHT22;24237;50.106;20.014;2023-02-24T14:15:02;14.50;99.90
38456;DHT22;24237;50.106;20.014;2023-02-24T14:17:35;14.50;99.90
38456;DHT22;24237;50.106;20.014;2023-02-24T14:20:18;14.30;99.90
38456;DHT22;24237;50.106;20.014;2023-02-24T14:22:54;14.40;99.90
38456;DHT22;24237;50.106;20.014;2023-02-24T14:25:24;14.20;99.90
38456;DHT22;24237;50.106;20.014;2023-02-24T14:27:55;14.30;99.90
38456;DHT22;24237;50.106;20.014;2023-02-24T14:30:30;14.60;99.90
38456;DHT22;24237;50.106;20.014;2023-02-24T14:32:57;14.80;99.90
38456;DHT22;24237;50.106;20.014;2023-02-24T14:35:40;14.50;99.90
38456;DHT22;24237;50.106;20.014;2023-02-24T14:38:28;14.30;99.90
38456;DHT22;24237;50.106;20.014;2023-02-24T14:40:54;14.00;99.90
38456;DHT22;24237;50.106;20.014;2023-02-24T14:46:47;14.10;99.90
38456;DHT22;24237;50.106;20.014;2023-02-24T14:49:21;14.10;99.90
38456;DHT22;24237;50.106;20.014;2023-02-24T14:51:49;14.10;99.90
38456;DHT22;24237;50.106;20.014;2023-02-24T14:54:22;14.00;99.90
38456;DHT22;24237;50.106;20.014;2023-02-24T14:56:49;13.90;99.90
38456;DHT22;24237;50.106;20.014;2023-02-24T14:59:32;13.80;99.90
38456;DHT22;24237;50.106;20.014;2023-02-24T15:02:00;13.50;99.90
38456;DHT22;24237;50.106;20.014;2023-02-24T15:04:38;13.60;99.90
38456;DHT22;24237;50.106;20.014;2023-02-24T15:07:21;13.70;99.90
38456;DHT22;24237;50.106;20.014;2023-02-24T15:09:49;13.70;99.90
38456;DHT22;24237;50.106;20.014;2023-02-24T15:12:33;13.80;99.90
38456;DHT22;24237;50.106;20.014;2023-02-24T15:15:13;13.60;99.90
38456;DHT22;24237;50.106;20.014;2023-02-24T15:17:42;13.70;99.90
38456;DHT22;24237;50.106;20.014;2023-02-24T15:20:25;13.90;99.90
38456;DHT22;24237;50.106;20.014;2023-02-24T15:22:52;13.60;99.90
38456;DHT22;24237;50.106;20.014;2023-02-24T15:25:21;13.60;99.90
38456;DHT22;24237;50.106;20.014;2023-02-24T15:28:24;13.70;99.90
38456;DHT22;24237;50.106;20.014;2023-02-24T15:33:34;13.30;99.90
38456;DHT22;24237;50.106;20.014;2023-02-24T15:36:03;12.90;99.90
38456;DHT22;24237;50.106;20.014;2023-02-24T15:38:38;12.30;99.90
38456;DHT22;24237;50.106;20.014;2023-02-24T15:41:06;12.00;99.90
38456;DHT22;24237;50.106;20.014;2023-02-24T15:48:53;11.50;99.90
38456;DHT22;24237;50.106;20.014;2023-02-24T15:53:56;11.40;99.90
38456;DHT22;24237;50.106;20.014;2023-02-24T15:56:22;11.30;99.90
38456;DHT22;24237;50.106;20.014;2023-02-24T15:58:47;11.30;99.90
38456;DHT22;24237;50.106;20.014;2023-02-24T16:01:13;11.30;99.90
38456;DHT22;24237;50.106;20.014;2023-02-24T16:03:39;11.10;99.90
38456;DHT22;24237;50.106;20.014;2023-02-24T16:06:05;11.00;99.90
38456;DHT22;24237;50.106;20.014;2023-02-24T16:08:31;11.00;99.90
38456;DHT22;24237;50.106;20.014;2023-02-24T16:10:57;11.10;99.90
38456;DHT22;24237;50.106;20.014;2023-02-24T16:13:24;11.00;99.90
38456;DHT22;24237;50.106;20.014;2023-02-24T16:15:51;11.00;99.90
38456;DHT22;24237;50.106;20.014;2023-02-24T16:18:21;11.00;99.90
38456;DHT22;24237;50.106;20.014;2023-02-24T16:20:48;11.10;99.90
38456;DHT22;24237;50.106;20.014;2023-02-24T16:23:21;10.90;99.90
38456;DHT22;24237;50.106;20.014;2023-02-24T16:25:49;11.00;99.90
38456;DHT22;24237;50.106;20.014;2023-02-24T16:28:17;11.10;99.90
38456;DHT22;24237;50.106;20.014;2023-02-24T16:30:44;11.00;99.90
38456;DHT22;24237;50.106;20.014;2023-02-24T16:33:14;11.20;99.90
38456;DHT22;24237;50.106;20.014;2023-02-24T16:35:41;11.10;99.90
38456;DHT22;24237;50.106;20.014;2023-02-24T16:38:16;11.10;99.90
38456;DHT22;24237;50.106;20.014;2023-02-24T16:40:47;11.20;99.90
38456;DHT22;24237;50.106;20.014;2023-02-24T16:43:14;11.10;99.90
38456;DHT22;24237;50.106;20.014;2023-02-24T16:45:41;11.00;99.90
38456;DHT22;24237;50.106;20.014;2023-02-24T16:48:23;10.90;99.90
38456;DHT22;24237;50.106;20.014;2023-02-24T16:50:50;11.00;99.90
38456;DHT22;24237;50.106;20.014;2023-02-24T16:53:18;11.10;99.90
38456;DHT22;24237;50.106;20.014;2023-02-24T16:55:45;11.00;99.90
38456;DHT22;24237;50.106;20.014;2023-02-24T16:58:11;11.00;99.90
38456;DHT22;24237;50.106;20.014;2023-02-24T17:00:38;11.10;99.90
38456;DHT22;24237;50.106;20.014;2023-02-24T17:03:12;11.00;99.90
38456;DHT22;24237;50.106;20.014;2023-02-24T17:05:39;11.00;99.90
38456;DHT22;24237;50.106;20.014;2023-02-24T17:08:04;11.30;99.90
38456;DHT22;24237;50.106;20.014;2023-02-24T17:10:30;11.10;99.90
38456;DHT22;24237;50.106;20.014;2023-02-24T17:12:57;11.00;99.90
38456;DHT22;24237;50.106;20.014;2023-02-24T17:15:23;11.10;99.90
38456;DHT22;24237;50.106;20.014;2023-02-24T17:17:49;11.20;99.90
38456;DHT22;24237;50.106;20.014;2023-02-24T17:20:17;11.30;99.90
38456;DHT22;24237;50.106;20.014;2023-02-24T17:22:44;11.40;99.90
38456;DHT22;24237;50.106;20.014;2023-02-24T17:25:15;11.30;99.90
38456;DHT22;24237;50.106;20.014;2023-02-24T17:27:41;11.30;99.90
38456;DHT22;24237;50.106;20.014;2023-02-24T17:30:10;11.20;99.90
38456;DHT22;24237;50.106;20.014;2023-02-24T17:32:36;11.20;99.90
38456;DHT22;24237;50.106;20.014;2023-02-24T17:35:02;11.20;99.90
38456;DHT22;24237;50.106;20.014;2023-02-24T17:37:27;11.10;99.90
38456;DHT22;24237;50.106;20.014;2023-02-24T17:39:53;11.20;99.90
38456;DHT22;24237;50.106;20.014;2023-02-24T17:42:18;11.10;99.90
38456;DHT22;24237;50.106;20.014;2023-02-24T17:44:44;11.10;99.90
38456;DHT22;24237;50.106;20.014;2023-02-24T17:47:10;11.20;99.90
38456;DHT22;24237;50.106;20.014;2023-02-24T17:49:36;11.10;99.90
38456;DHT22;24237;50.106;20.014;2023-02-24T17:52:02;11.10;99.90
38456;DHT22;24237;50.106;20.014;2023-02-24T17:54:27;11.10;99.90
38456;DHT22;24237;50.106;20.014;2023-02-24T17:56:53;11.10;99.90
38456;DHT22;24237;50.106;20.014;2023-02-24T17:59:19;11.00;99.90
38456;DHT22;24237;50.106;20.014;2023-02-24T18:01:44;11.10;99.90
38456;DHT22;24237;50.106;20.014;2023-02-24T18:04:11;11.00;99.90
38456;DHT22;24237;50.106;20.014;2023-02-24T18:06:43;10.90;99.90
38456;DHT22;24237;50.106;20.014;2023-02-24T18:09:09;10.90;99.90
38456;DHT22;24237;50.106;20.014;2023-02-24T18:11:35;10.90;99.90
38456;DHT22;24237;50.106;20.014;2023-02-24T18:14:02;11.00;99.90
38456;DHT22;24237;50.106;20.014;2023-02-24T18:16:28;10.90;99.90